Ecokeeper — SVTY — position and weather

sailwx.info

Track history (hours):
 
Tides and Currents Weather Stations Pressure Air Temp Water Temp Dewpoint Dewpoint Depression Visibility Wind Speed Wind Dir Waves Ship Positions

Ecokeeper

Last reported at 2015-Feb-28 08:33 UTC. Time now 2015-Feb-28 12:30 UTC.
Position N 37°57' E 023°34'.

Length 90 m; draft 5.5 m.

Type: Tanker. MMSI: 240689000.

Date/timePositionNaut miles runAvg speedWind from/ knotsBaromVisibWave heightAir tempDewpointWater temp
2015-Feb-28 08:33N 37°57' E 023°34'4 3.9
2015-Feb-28 07:33N 37°54' E 023°37'9 8.9
2015-Feb-28 06:33N 37°46' E 023°42'9 8.5
2015-Feb-28 05:30N 37°39' E 023°48'  
2015-Feb-24 11:34N 37°24' E 025°51'8 8.4
2015-Feb-24 10:33N 37°31' E 025°46'  
2015-Feb-21 02:15N 37°37' E 024°09'7 8.4
2015-Feb-21 01:26N 37°36' E 024°00'8 9.5
2015-Feb-21 00:33N 37°37' E 023°50'9 8.6
2015-Feb-20 23:33N 37°42' E 023°41'10 9.6
2015-Feb-20 22:34N 37°51' E 023°36'6 6.1
2015-Feb-20 21:33N 37°57' E 023°34'0 0.0
2015-Feb-20 07:05N 37°57' E 023°34'2 3.3
2015-Feb-20 06:33N 37°58' E 023°33'4 4.0
2015-Feb-20 05:33N 38°02' E 023°36'0 0.0
2015-Feb-20 04:33N 38°02' E 023°36'0 0.0
2015-Feb-20 03:33N 38°02' E 023°36'0 0.0
2015-Feb-20 02:33N 38°02' E 023°36'0 0.0
2015-Feb-20 01:32N 38°02' E 023°36'0 0.0
2015-Feb-20 00:33N 38°02' E 023°36'0 0.0
2015-Feb-19 23:33N 38°02' E 023°36'0 0.0
2015-Feb-19 22:33N 38°02' E 023°36'0 0.0
2015-Feb-19 21:33N 38°02' E 023°36'0 0.0
2015-Feb-19 20:33N 38°02' E 023°36'0 0.0
2015-Feb-19 19:33N 38°02' E 023°36'0 0.0
2015-Feb-19 18:33N 38°02' E 023°36'0 0.0
2015-Feb-19 17:33N 38°02' E 023°36'0 0.0
2015-Feb-19 16:28N 38°02' E 023°36'0 0.0
2015-Feb-19 15:18N 38°02' E 023°36'0 0.0
2015-Feb-19 14:32N 38°02' E 023°36'0 0.0
2015-Feb-19 13:33N 38°02' E 023°36'0 0.0
2015-Feb-19 12:33N 38°02' E 023°36'0 0.0
2015-Feb-19 11:33N 38°02' E 023°36'0 0.0
2015-Feb-19 10:32N 38°02' E 023°36'0 0.0
2015-Feb-19 09:33N 38°02' E 023°36'0 0.0
2015-Feb-19 08:33N 38°02' E 023°36'0 0.1
2015-Feb-19 07:33N 38°02' E 023°36'5 4.7
2015-Feb-19 06:33N 37°58' E 023°33'1 0.0
2015-Feb-18 10:33N 37°57' E 023°34'0 0.4
2015-Feb-18 09:33N 37°57' E 023°34'0 0.0
2015-Feb-18 08:33N 37°57' E 023°34'  
Track history (hours):
 
Tides and Currents Weather Stations Pressure Air Temp Water Temp Dewpoint Dewpoint Depression Visibility Wind Speed Wind Dir Waves Ship Positions

Ecokeeper

Last reported at 2015-Feb-28 08:33 UTC. Time now 2015-Feb-28 12:30 UTC.
Position N 37°57' E 023°34'.

Length 90 m; draft 5.5 m.

Type: Tanker. MMSI: 240689000.

Date/timePositionNaut miles runAvg speedWind from/ knotsBaromVisibWave heightAir tempDewpointWater temp
2015-Feb-28 08:33N 37°57' E 023°34'4 3.9
2015-Feb-28 07:33N 37°54' E 023°37'9 8.9
2015-Feb-28 06:33N 37°46' E 023°42'9 8.5
2015-Feb-28 05:30N 37°39' E 023°48'  
2015-Feb-24 11:34N 37°24' E 025°51'8 8.4
2015-Feb-24 10:33N 37°31' E 025°46'  
2015-Feb-21 02:15N 37°37' E 024°09'7 8.4
2015-Feb-21 01:26N 37°36' E 024°00'8 9.5
2015-Feb-21 00:33N 37°37' E 023°50'9 8.6
2015-Feb-20 23:33N 37°42' E 023°41'10 9.6
2015-Feb-20 22:34N 37°51' E 023°36'6 6.1
2015-Feb-20 21:33N 37°57' E 023°34'0 0.0
2015-Feb-20 07:05N 37°57' E 023°34'2 3.3
2015-Feb-20 06:33N 37°58' E 023°33'4 4.0
2015-Feb-20 05:33N 38°02' E 023°36'0 0.0
2015-Feb-20 04:33N 38°02' E 023°36'0 0.0
2015-Feb-20 03:33N 38°02' E 023°36'0 0.0
2015-Feb-20 02:33N 38°02' E 023°36'0 0.0
2015-Feb-20 01:32N 38°02' E 023°36'0 0.0
2015-Feb-20 00:33N 38°02' E 023°36'0 0.0
2015-Feb-19 23:33N 38°02' E 023°36'0 0.0
2015-Feb-19 22:33N 38°02' E 023°36'0 0.0
2015-Feb-19 21:33N 38°02' E 023°36'0 0.0
2015-Feb-19 20:33N 38°02' E 023°36'0 0.0
2015-Feb-19 19:33N 38°02' E 023°36'0 0.0
2015-Feb-19 18:33N 38°02' E 023°36'0 0.0
2015-Feb-19 17:33N 38°02' E 023°36'0 0.0
2015-Feb-19 16:28N 38°02' E 023°36'0 0.0
2015-Feb-19 15:18N 38°02' E 023°36'0 0.0
2015-Feb-19 14:32N 38°02' E 023°36'0 0.0
2015-Feb-19 13:33N 38°02' E 023°36'0 0.0
2015-Feb-19 12:33N 38°02' E 023°36'0 0.0
2015-Feb-19 11:33N 38°02' E 023°36'0 0.0
2015-Feb-19 10:32N 38°02' E 023°36'0 0.0
2015-Feb-19 09:33N 38°02' E 023°36'0 0.0
2015-Feb-19 08:33N 38°02' E 023°36'0 0.1
2015-Feb-19 07:33N 38°02' E 023°36'5 4.7
2015-Feb-19 06:33N 37°58' E 023°33'1 0.0
2015-Feb-18 10:33N 37°57' E 023°34'0 0.4
2015-Feb-18 09:33N 37°57' E 023°34'0 0.0
2015-Feb-18 08:33N 37°57' E 023°34'  

Dump ship's entire track history